sensor_id;sensor_type;location;lat;lon;timestamp;pressure;altitude;pressure_sealevel;temperature;humidity
61205;BME280;47068;55.780;37.520;2024-03-02T00:02:10;101201.22;;;5.65;67.76
61205;BME280;47068;55.780;37.520;2024-03-02T00:04:36;101196.97;;;5.62;67.93
61205;BME280;47068;55.780;37.520;2024-03-02T00:07:02;101197.34;;;5.56;68.03
61205;BME280;47068;55.780;37.520;2024-03-02T00:09:29;101201.13;;;5.52;67.73
61205;BME280;47068;55.780;37.520;2024-03-02T00:11:54;101194.31;;;5.48;67.91
61205;BME280;47068;55.780;37.520;2024-03-02T00:14:19;101176.91;;;5.31;68.31
61205;BME280;47068;55.780;37.520;2024-03-02T00:16:45;101192.63;;;5.33;68.52
61205;BME280;47068;55.780;37.520;2024-03-02T00:19:11;101190.66;;;5.36;69.05
61205;BME280;47068;55.780;37.520;2024-03-02T00:21:36;101186.78;;;5.42;69.12
61205;BME280;47068;55.780;37.520;2024-03-02T00:24:31;101188.88;;;5.51;68.50
61205;BME280;47068;55.780;37.520;2024-03-02T00:26:57;101180.56;;;5.43;67.88
61205;BME280;47068;55.780;37.520;2024-03-02T00:29:22;101171.81;;;5.28;68.18
61205;BME280;47068;55.780;37.520;2024-03-02T00:31:48;101166.44;;;5.15;68.32
61205;BME280;47068;55.780;37.520;2024-03-02T00:34:14;101180.28;;;5.19;68.88
61205;BME280;47068;55.780;37.520;2024-03-02T00:36:41;101194.91;;;5.25;69.32
61205;BME280;47068;55.780;37.520;2024-03-02T00:39:07;101190.84;;;5.33;68.74
61205;BME280;47068;55.780;37.520;2024-03-02T00:41:33;101172.75;;;5.27;68.23
61205;BME280;47068;55.780;37.520;2024-03-02T00:44:00;101196.03;;;5.49;68.78
61205;BME280;47068;55.780;37.520;2024-03-02T00:46:28;101194.78;;;5.54;68.26
61205;BME280;47068;55.780;37.520;2024-03-02T00:49:00;101191.13;;;5.57;68.29
61205;BME280;47068;55.780;37.520;2024-03-02T00:51:30;101189.13;;;5.61;68.30
61205;BME280;47068;55.780;37.520;2024-03-02T00:53:59;101186.69;;;5.58;67.92
61205;BME280;47068;55.780;37.520;2024-03-02T00:56:25;101189.97;;;5.61;67.49
61205;BME280;47068;55.780;37.520;2024-03-02T00:58:51;101197.34;;;5.56;67.72
61205;BME280;47068;55.780;37.520;2024-03-02T01:01:17;101184.81;;;5.45;67.86
61205;BME280;47068;55.780;37.520;2024-03-02T01:03:43;101197.34;;;5.56;68.00
61205;BME280;47068;55.780;37.520;2024-03-02T01:06:09;101200.16;;;5.67;67.73
61205;BME280;47068;55.780;37.520;2024-03-02T01:08:35;101207.13;;;5.68;67.86
61205;BME280;47068;55.780;37.520;2024-03-02T01:11:01;101208.19;;;5.66;67.40
61205;BME280;47068;55.780;37.520;2024-03-02T01:13:26;101208.06;;;5.67;67.90
61205;BME280;47068;55.780;37.520;2024-03-02T01:15:52;101211.31;;;5.72;67.30
61205;BME280;47068;55.780;37.520;2024-03-02T01:18:18;101214.31;;;5.80;66.83
61205;BME280;47068;55.780;37.520;2024-03-02T01:20:44;101193.00;;;5.69;66.86
61205;BME280;47068;55.780;37.520;2024-03-02T01:23:09;101198.28;;;5.69;66.23
61205;BME280;47068;55.780;37.520;2024-03-02T01:25:35;101204.72;;;5.65;66.46
61205;BME280;47068;55.780;37.520;2024-03-02T01:28:01;101207.53;;;5.62;67.05
61205;BME280;47068;55.780;37.520;2024-03-02T01:30:27;101215.19;;;5.67;66.95
61205;BME280;47068;55.780;37.520;2024-03-02T01:32:52;101212.63;;;5.65;67.40
61205;BME280;47068;55.780;37.520;2024-03-02T01:35:18;101191.97;;;5.58;67.00
61205;BME280;47068;55.780;37.520;2024-03-02T01:37:43;101205.56;;;5.66;66.46
61205;BME280;47068;55.780;37.520;2024-03-02T01:40:09;101206.03;;;5.58;66.31
61205;BME280;47068;55.780;37.520;2024-03-02T01:42:36;101204.03;;;5.47;66.20
61205;BME280;47068;55.780;37.520;2024-03-02T01:45:02;101208.66;;;5.44;66.61
61205;BME280;47068;55.780;37.520;2024-03-02T01:47:28;101207.44;;;5.49;66.47
61205;BME280;47068;55.780;37.520;2024-03-02T01:49:54;101200.19;;;5.53;66.88
61205;BME280;47068;55.780;37.520;2024-03-02T01:52:19;101209.41;;;5.60;67.06
61205;BME280;47068;55.780;37.520;2024-03-02T01:54:45;101171.41;;;5.48;66.92
61205;BME280;47068;55.780;37.520;2024-03-02T01:57:10;101205.44;;;5.67;67.25
61205;BME280;47068;55.780;37.520;2024-03-02T01:59:36;101190.81;;;5.62;67.20
61205;BME280;47068;55.780;37.520;2024-03-02T02:02:01;101204.50;;;5.54;67.09
61205;BME280;47068;55.780;37.520;2024-03-02T02:04:27;101207.06;;;5.55;66.79
61205;BME280;47068;55.780;37.520;2024-03-02T02:06:53;101206.59;;;5.63;66.96
61205;BME280;47068;55.780;37.520;2024-03-02T02:09:19;101216.66;;;5.71;66.84
61205;BME280;47068;55.780;37.520;2024-03-02T02:11:44;101214.50;;;5.63;66.65
61205;BME280;47068;55.780;37.520;2024-03-02T02:14:10;101214.31;;;5.66;66.88
61205;BME280;47068;55.780;37.520;2024-03-02T02:16:36;101215.19;;;5.67;66.56
61205;BME280;47068;55.780;37.520;2024-03-02T02:19:02;101167.06;;;5.47;66.59
61205;BME280;47068;55.780;37.520;2024-03-02T02:21:28;101210.81;;;5.80;66.28
61205;BME280;47068;55.780;37.520;2024-03-02T02:23:54;101205.72;;;5.77;66.28
61205;BME280;47068;55.780;37.520;2024-03-02T02:26:19;101209.75;;;5.82;65.86
61205;BME280;47068;55.780;37.520;2024-03-02T02:28:44;101210.53;;;5.84;66.00
61205;BME280;47068;55.780;37.520;2024-03-02T02:31:13;101216.38;;;5.89;66.24
61205;BME280;47068;55.780;37.520;2024-03-02T02:33:41;101221.84;;;5.86;65.89
61205;BME280;47068;55.780;37.520;2024-03-02T02:36:07;101224.13;;;5.78;65.85
61205;BME280;47068;55.780;37.520;2024-03-02T02:38:33;101223.06;;;5.81;66.38
61205;BME280;47068;55.780;37.520;2024-03-02T02:41:02;101221.84;;;5.86;66.17
61205;BME280;47068;55.780;37.520;2024-03-02T02:43:27;101223.59;;;5.87;66.08
61205;BME280;47068;55.780;37.520;2024-03-02T02:45:53;101207.50;;;5.76;65.73
61205;BME280;47068;55.780;37.520;2024-03-02T02:48:18;101225.16;;;5.90;65.33
61205;BME280;47068;55.780;37.520;2024-03-02T02:50:43;101210.44;;;5.86;65.87
61205;BME280;47068;55.780;37.520;2024-03-02T02:53:09;101217.59;;;5.84;65.43
61205;BME280;47068;55.780;37.520;2024-03-02T02:55:35;101223.59;;;5.87;65.28
61205;BME280;47068;55.780;37.520;2024-03-02T02:58:08;101219.78;;;5.77;65.34
61205;BME280;47068;55.780;37.520;2024-03-02T03:00:33;101221.66;;;5.75;65.50
61205;BME280;47068;55.780;37.520;2024-03-02T03:02:59;101214.59;;;5.76;65.90
61205;BME280;47068;55.780;37.520;2024-03-02T03:05:24;101216.66;;;5.71;65.68
61205;BME280;47068;55.780;37.520;2024-03-02T03:07:50;101223.09;;;5.67;66.21
61205;BME280;47068;55.780;37.520;2024-03-02T03:10:16;101204.88;;;5.48;65.74
61205;BME280;47068;55.780;37.520;2024-03-02T03:12:41;101228.47;;;5.51;66.10
61205;BME280;47068;55.780;37.520;2024-03-02T03:15:09;101236.28;;;5.38;66.26
61205;BME280;47068;55.780;37.520;2024-03-02T03:17:35;101229.00;;;5.28;66.08
61205;BME280;47068;55.780;37.520;2024-03-02T03:20:02;101236.84;;;5.29;67.24
61205;BME280;47068;55.780;37.520;2024-03-02T03:22:29;101228.47;;;5.37;66.43
61205;BME280;47068;55.780;37.520;2024-03-02T03:24:55;101226.94;;;5.33;66.66
61205;BME280;47068;55.780;37.520;2024-03-02T03:27:21;101228.94;;;5.29;66.59
61205;BME280;47068;55.780;37.520;2024-03-02T03:29:46;101229.00;;;5.13;66.75
61205;BME280;47068;55.780;37.520;2024-03-02T03:32:12;101228.25;;;5.11;67.04
61205;BME280;47068;55.780;37.520;2024-03-02T03:34:37;101227.75;;;5.05;67.03
61205;BME280;47068;55.780;37.520;2024-03-02T03:37:03;101218.25;;;5.02;67.62
61205;BME280;47068;55.780;37.520;2024-03-02T03:39:29;101149.13;;;4.67;66.95
61205;BME280;47068;55.780;37.520;2024-03-02T03:41:54;101222.41;;;5.21;66.70
61205;BME280;47068;55.780;37.520;2024-03-02T03:44:20;101214.31;;;5.24;67.24
61205;BME280;47068;55.780;37.520;2024-03-02T03:46:45;101198.66;;;5.21;66.91
61205;BME280;47068;55.780;37.520;2024-03-02T03:49:10;101199.03;;;5.29;66.72
61205;BME280;47068;55.780;37.520;2024-03-02T03:51:36;101216.97;;;5.52;66.94
61205;BME280;47068;55.780;37.520;2024-03-02T03:54:01;101201.31;;;5.49;66.75
61205;BME280;47068;55.780;37.520;2024-03-02T03:56:27;101218.09;;;5.62;66.26
61205;BME280;47068;55.780;37.520;2024-03-02T03:58:52;101217.06;;;5.65;66.22
61205;BME280;47068;55.780;37.520;2024-03-02T04:01:18;101212.81;;;5.62;66.54
61205;BME280;47068;55.780;37.520;2024-03-02T04:03:43;101200.28;;;5.51;65.29
61205;BME280;47068;55.780;37.520;2024-03-02T04:06:09;101211.31;;;5.58;65.83
61205;BME280;47068;55.780;37.520;2024-03-02T04:08:34;101198.66;;;5.49;65.35
61205;BME280;47068;55.780;37.520;2024-03-02T04:11:00;101210.53;;;5.56;65.20
61205;BME280;47068;55.780;37.520;2024-03-02T04:13:25;101190.38;;;5.27;65.31
61205;BME280;47068;55.780;37.520;2024-03-02T04:15:51;101218.06;;;5.34;65.81
61205;BME280;47068;55.780;37.520;2024-03-02T04:18:16;101218.47;;;5.28;66.11
61205;BME280;47068;55.780;37.520;2024-03-02T04:20:42;101219.22;;;5.30;66.39
61205;BME280;47068;55.780;37.520;2024-03-02T04:23:07;101227.63;;;5.36;66.51
61205;BME280;47068;55.780;37.520;2024-03-02T04:25:33;101219.03;;;5.47;66.23
61205;BME280;47068;55.780;37.520;2024-03-02T04:27:58;101225.06;;;5.49;66.24
61205;BME280;47068;55.780;37.520;2024-03-02T04:30:24;101224.59;;;5.42;66.21
61205;BME280;47068;55.780;37.520;2024-03-02T04:32:50;101224.03;;;5.37;66.11
61205;BME280;47068;55.780;37.520;2024-03-02T04:35:16;101219.13;;;5.31;65.80
61205;BME280;47068;55.780;37.520;2024-03-02T04:37:41;101220.25;;;5.27;65.59
61205;BME280;47068;55.780;37.520;2024-03-02T04:40:07;101209.97;;;5.23;66.31
61205;BME280;47068;55.780;37.520;2024-03-02T04:42:35;101218.28;;;5.31;65.54
61205;BME280;47068;55.780;37.520;2024-03-02T04:45:01;101217.91;;;5.23;65.56
61205;BME280;47068;55.780;37.520;2024-03-02T04:47:27;101222.78;;;5.14;65.84
61205;BME280;47068;55.780;37.520;2024-03-02T04:49:53;101204.84;;;5.05;66.13
61205;BME280;47068;55.780;37.520;2024-03-02T04:52:18;101216.66;;;5.14;65.87
61205;BME280;47068;55.780;37.520;2024-03-02T04:54:44;101226.56;;;5.10;66.31
61205;BME280;47068;55.780;37.520;2024-03-02T04:57:28;101207.41;;;5.07;66.50
61205;BME280;47068;55.780;37.520;2024-03-02T04:59:53;101219.03;;;5.19;66.59
61205;BME280;47068;55.780;37.520;2024-03-02T05:02:18;101221.00;;;5.15;65.85
61205;BME280;47068;55.780;37.520;2024-03-02T05:04:44;101224.84;;;5.09;66.60
61205;BME280;47068;55.780;37.520;2024-03-02T05:07:09;101220.22;;;5.13;66.65
61205;BME280;47068;55.780;37.520;2024-03-02T05:09:35;101214.22;;;5.11;66.47
61205;BME280;47068;55.780;37.520;2024-03-02T05:12:01;101213.94;;;5.15;66.52
61205;BME280;47068;55.780;37.520;2024-03-02T05:14:45;101210.09;;;4.91;66.65
61205;BME280;47068;55.780;37.520;2024-03-02T05:17:11;101205.00;;;4.74;67.09
61205;BME280;47068;55.780;37.520;2024-03-02T05:19:36;101190.25;;;4.56;67.59
61205;BME280;47068;55.780;37.520;2024-03-02T05:22:02;101209.56;;;4.70;67.60
61205;BME280;47068;55.780;37.520;2024-03-02T05:24:28;101222.22;;;4.80;67.73
61205;BME280;47068;55.780;37.520;2024-03-02T05:26:54;101221.50;;;4.92;67.46
61205;BME280;47068;55.780;37.520;2024-03-02T05:29:19;101219.75;;;5.06;66.99
61205;BME280;47068;55.780;37.520;2024-03-02T05:31:45;101221.69;;;5.19;66.65
61205;BME280;47068;55.780;37.520;2024-03-02T05:34:11;101128.41;;;4.61;65.87
61205;BME280;47068;55.780;37.520;2024-03-02T05:36:37;101223.91;;;5.10;65.82
61205;BME280;47068;55.780;37.520;2024-03-02T05:39:04;101226.72;;;5.07;66.29
61205;BME280;47068;55.780;37.520;2024-03-02T05:41:31;101222.31;;;5.08;66.55
61205;BME280;47068;55.780;37.520;2024-03-02T05:43:57;101226.72;;;5.07;66.66
61205;BME280;47068;55.780;37.520;2024-03-02T05:46:22;101202.97;;;4.93;66.15
61205;BME280;47068;55.780;37.520;2024-03-02T05:48:48;101228.50;;;5.07;66.20
61205;BME280;47068;55.780;37.520;2024-03-02T05:51:13;101209.41;;;5.03;66.62
61205;BME280;47068;55.780;37.520;2024-03-02T05:53:39;101226.19;;;5.17;66.41
61205;BME280;47068;55.780;37.520;2024-03-02T05:56:06;101231.84;;;5.25;66.55
61205;BME280;47068;55.780;37.520;2024-03-02T05:58:32;101220.31;;;5.26;65.97
61205;BME280;47068;55.780;37.520;2024-03-02T06:01:16;101239.03;;;5.37;65.42
61205;BME280;47068;55.780;37.520;2024-03-02T06:03:43;101241.84;;;5.34;65.50
61205;BME280;47068;55.780;37.520;2024-03-02T06:06:09;101218.53;;;5.12;65.79
61205;BME280;47068;55.780;37.520;2024-03-02T06:08:34;101243.72;;;5.18;65.92
61205;BME280;47068;55.780;37.520;2024-03-02T06:11:00;101225.97;;;5.05;65.63
61205;BME280;47068;55.780;37.520;2024-03-02T06:13:26;101233.16;;;5.18;65.75
61205;BME280;47068;55.780;37.520;2024-03-02T06:15:52;101210.63;;;4.98;65.87
61205;BME280;47068;55.780;37.520;2024-03-02T06:18:17;101228.59;;;5.05;65.97
61205;BME280;47068;55.780;37.520;2024-03-02T06:20:43;101240.03;;;5.20;66.30
61205;BME280;47068;55.780;37.520;2024-03-02T06:23:08;101231.50;;;5.01;66.23
61205;BME280;47068;55.780;37.520;2024-03-02T06:25:34;101243.56;;;5.05;66.65
61205;BME280;47068;55.780;37.520;2024-03-02T06:28:00;101231.81;;;4.96;66.78
61205;BME280;47068;55.780;37.520;2024-03-02T06:30:26;101241.63;;;5.08;66.70
61205;BME280;47068;55.780;37.520;2024-03-02T06:32:51;101237.59;;;4.87;66.53
61205;BME280;47068;55.780;37.520;2024-03-02T06:35:16;101229.44;;;5.06;66.38
61205;BME280;47068;55.780;37.520;2024-03-02T06:37:42;101238.06;;;5.24;66.43
61205;BME280;47068;55.780;37.520;2024-03-02T06:40:08;101243.75;;;5.46;66.31
61205;BME280;47068;55.780;37.520;2024-03-02T06:42:34;101242.91;;;5.60;65.14
61205;BME280;47068;55.780;37.520;2024-03-02T06:45:00;101241.47;;;5.40;64.77
61205;BME280;47068;55.780;37.520;2024-03-02T06:47:25;101241.75;;;5.64;64.83
61205;BME280;47068;55.780;37.520;2024-03-02T06:49:51;101239.03;;;5.65;64.36
61205;BME280;47068;55.780;37.520;2024-03-02T06:52:16;101226.69;;;5.51;64.86
61205;BME280;47068;55.780;37.520;2024-03-02T06:54:42;101241.88;;;5.90;64.47
61205;BME280;47068;55.780;37.520;2024-03-02T06:57:07;101215.81;;;5.84;64.06
61205;BME280;47068;55.780;37.520;2024-03-02T06:59:33;101241.25;;;6.14;63.55
61205;BME280;47068;55.780;37.520;2024-03-02T07:01:59;101243.59;;;6.18;63.54
61205;BME280;47068;55.780;37.520;2024-03-02T07:04:26;101254.84;;;6.22;63.01
61205;BME280;47068;55.780;37.520;2024-03-02T07:06:51;101249.94;;;6.02;63.15
61205;BME280;47068;55.780;37.520;2024-03-02T07:09:17;101247.59;;;5.83;63.47
61205;BME280;47068;55.780;37.520;2024-03-02T07:11:42;101236.38;;;5.65;63.54
61205;BME280;47068;55.780;37.520;2024-03-02T07:14:08;101262.03;;;5.63;64.07
61205;BME280;47068;55.780;37.520;2024-03-02T07:16:34;101249.97;;;5.59;64.13
61205;BME280;47068;55.780;37.520;2024-03-02T07:19:00;101247.72;;;5.53;64.34
61205;BME280;47068;55.780;37.520;2024-03-02T07:21:27;101252.59;;;5.45;64.78
61205;BME280;47068;55.780;37.520;2024-03-02T07:23:53;101109.94;;;4.47;64.99
61205;BME280;47068;55.780;37.520;2024-03-02T07:26:19;101252.69;;;5.29;65.41
61205;BME280;47068;55.780;37.520;2024-03-02T07:28:48;101254.94;;;5.35;64.96
61205;BME280;47068;55.780;37.520;2024-03-02T07:31:14;101254.47;;;5.29;65.37
61205;BME280;47068;55.780;37.520;2024-03-02T07:33:40;101249.56;;;5.37;65.71
61205;BME280;47068;55.780;37.520;2024-03-02T07:36:07;101013.72;;;3.96;65.05
61205;BME280;47068;55.780;37.520;2024-03-02T07:38:32;101200.81;;;5.14;65.10
61205;BME280;47068;55.780;37.520;2024-03-02T07:41:00;101251.09;;;5.55;65.07
61205;BME280;47068;55.780;37.520;2024-03-02T07:43:26;101235.91;;;5.73;64.54
61205;BME280;47068;55.780;37.520;2024-03-02T07:45:51;100935.28;;;4.01;64.10
61205;BME280;47068;55.780;37.520;2024-03-02T07:48:18;101232.22;;;5.89;64.18
61205;BME280;47068;55.780;37.520;2024-03-02T07:50:43;101227.22;;;5.99;64.03
61205;BME280;47068;55.780;37.520;2024-03-02T07:53:08;101220.63;;;6.06;63.01
61205;BME280;47068;55.780;37.520;2024-03-02T07:55:34;101229.63;;;6.16;62.61
61205;BME280;47068;55.780;37.520;2024-03-02T07:58:00;101238.16;;;6.07;63.58
61205;BME280;47068;55.780;37.520;2024-03-02T08:00:26;101232.88;;;6.07;62.96
61205;BME280;47068;55.780;37.520;2024-03-02T08:02:53;101240.34;;;6.01;62.55
61205;BME280;47068;55.780;37.520;2024-03-02T08:05:19;101221.66;;;5.89;63.58
61205;BME280;47068;55.780;37.520;2024-03-02T08:07:45;101235.91;;;6.01;63.07
61205;BME280;47068;55.780;37.520;2024-03-02T08:10:11;101228.66;;;5.90;63.60
61205;BME280;47068;55.780;37.520;2024-03-02T08:12:36;101224.88;;;5.80;63.64
61205;BME280;47068;55.780;37.520;2024-03-02T08:15:02;101222.31;;;5.79;64.15
61205;BME280;47068;55.780;37.520;2024-03-02T08:17:28;101222.97;;;5.82;63.65
61205;BME280;47068;55.780;37.520;2024-03-02T08:19:53;101227.16;;;5.72;64.01
61205;BME280;47068;55.780;37.520;2024-03-02T08:22:19;101232.44;;;5.58;64.00
61205;BME280;47068;55.780;37.520;2024-03-02T08:24:45;101215.66;;;5.45;64.32
61205;BME280;47068;55.780;37.520;2024-03-02T08:27:10;101205.75;;;5.48;63.48
61205;BME280;47068;55.780;37.520;2024-03-02T08:29:36;101230.34;;;5.63;63.40
61205;BME280;47068;55.780;37.520;2024-03-02T08:32:01;101228.84;;;5.73;63.62
61205;BME280;47068;55.780;37.520;2024-03-02T08:34:27;101233.06;;;5.76;63.45
61205;BME280;47068;55.780;37.520;2024-03-02T08:36:53;101231.56;;;5.86;63.26
61205;BME280;47068;55.780;37.520;2024-03-02T08:39:19;101208.28;;;5.78;62.55
61205;BME280;47068;55.780;37.520;2024-03-02T08:41:45;101230.19;;;5.95;62.65
61205;BME280;47068;55.780;37.520;2024-03-02T08:44:12;101234.69;;;6.07;62.29
61205;BME280;47068;55.780;37.520;2024-03-02T08:46:38;101236.16;;;6.11;61.97
61205;BME280;47068;55.780;37.520;2024-03-02T08:49:04;101229.50;;;6.32;61.97
61205;BME280;47068;55.780;37.520;2024-03-02T08:51:30;101225.50;;;6.66;60.13
61205;BME280;47068;55.780;37.520;2024-03-02T08:53:56;101158.75;;;6.62;59.63
61205;BME280;47068;55.780;37.520;2024-03-02T08:56:22;101227.06;;;7.59;58.97
61205;BME280;47068;55.780;37.520;2024-03-02T08:58:49;101222.63;;;8.08;56.28
61205;BME280;47068;55.780;37.520;2024-03-02T09:01:15;101232.19;;;7.98;55.41
61205;BME280;47068;55.780;37.520;2024-03-02T09:03:41;101232.63;;;7.92;56.07
61205;BME280;47068;55.780;37.520;2024-03-02T09:06:10;101237.00;;;7.68;56.75
61205;BME280;47068;55.780;37.520;2024-03-02T09:08:35;101207.69;;;7.20;57.14
61205;BME280;47068;55.780;37.520;2024-03-02T09:11:04;101223.75;;;6.92;58.40
61205;BME280;47068;55.780;37.520;2024-03-02T09:13:31;101210.22;;;6.84;58.45
61205;BME280;47068;55.780;37.520;2024-03-02T09:15:57;101218.34;;;6.93;58.55
61205;BME280;47068;55.780;37.520;2024-03-02T09:18:22;101212.94;;;6.82;58.98
61205;BME280;47068;55.780;37.520;2024-03-02T09:20:48;101210.44;;;7.06;58.58
61205;BME280;47068;55.780;37.520;2024-03-02T09:23:14;101214.25;;;7.15;58.73
61205;BME280;47068;55.780;37.520;2024-03-02T09:25:39;101211.50;;;7.16;58.04
61205;BME280;47068;55.780;37.520;2024-03-02T09:28:05;101197.63;;;7.12;58.14
61205;BME280;47068;55.780;37.520;2024-03-02T09:30:30;101210.22;;;7.22;58.66
61205;BME280;47068;55.780;37.520;2024-03-02T09:32:56;101197.72;;;6.98;59.09
61205;BME280;47068;55.780;37.520;2024-03-02T09:35:22;101192.00;;;6.92;59.17
61205;BME280;47068;55.780;37.520;2024-03-02T09:37:47;101204.69;;;6.99;58.55
61205;BME280;47068;55.780;37.520;2024-03-02T09:40:13;101199.81;;;6.81;59.19
61205;BME280;47068;55.780;37.520;2024-03-02T09:42:40;101202.34;;;6.69;58.93
61205;BME280;47068;55.780;37.520;2024-03-02T09:45:06;101206.31;;;6.50;60.13
61205;BME280;47068;55.780;37.520;2024-03-02T09:47:32;101185.53;;;6.44;60.21
61205;BME280;47068;55.780;37.520;2024-03-02T09:49:57;101201.13;;;6.48;60.09
61205;BME280;47068;55.780;37.520;2024-03-02T09:52:23;101196.13;;;6.44;59.49
61205;BME280;47068;55.780;37.520;2024-03-02T09:54:49;101203.91;;;6.32;59.88
61205;BME280;47068;55.780;37.520;2024-03-02T09:57:15;101181.03;;;6.19;60.41
61205;BME280;47068;55.780;37.520;2024-03-02T09:59:41;101206.91;;;6.41;59.94
61205;BME280;47068;55.780;37.520;2024-03-02T10:02:06;101185.81;;;6.66;60.11
61205;BME280;47068;55.780;37.520;2024-03-02T10:04:33;101195.34;;;6.68;58.50
61205;BME280;47068;55.780;37.520;2024-03-02T10:07:17;101203.19;;;6.70;58.97
61205;BME280;47068;55.780;37.520;2024-03-02T10:09:48;101202.47;;;6.81;58.20
61205;BME280;47068;55.780;37.520;2024-03-02T10:12:16;101200.16;;;6.89;58.53
61205;BME280;47068;55.780;37.520;2024-03-02T10:14:42;101201.47;;;6.56;58.44
61205;BME280;47068;55.780;37.520;2024-03-02T10:17:09;101197.47;;;6.63;58.56
61205;BME280;47068;55.780;37.520;2024-03-02T10:19:35;101188.56;;;6.64;57.98
61205;BME280;47068;55.780;37.520;2024-03-02T10:22:03;101147.03;;;6.40;58.89
61205;BME280;47068;55.780;37.520;2024-03-02T10:24:49;101193.69;;;6.93;57.63
61205;BME280;47068;55.780;37.520;2024-03-02T10:27:28;101195.81;;;6.88;57.39
61205;BME280;47068;55.780;37.520;2024-03-02T10:29:55;101209.09;;;6.61;57.63
61205;BME280;47068;55.780;37.520;2024-03-02T10:32:22;101218.34;;;6.14;59.19
61205;BME280;47068;55.780;37.520;2024-03-02T10:34:50;101223.06;;;5.81;60.21
61205;BME280;47068;55.780;37.520;2024-03-02T10:37:15;101220.47;;;5.67;61.13
61205;BME280;47068;55.780;37.520;2024-03-02T10:39:42;101217.53;;;5.71;61.11
61205;BME280;47068;55.780;37.520;2024-03-02T10:42:09;101224.88;;;5.80;61.00
61205;BME280;47068;55.780;37.520;2024-03-02T10:44:34;101226.28;;;5.86;60.87
61205;BME280;47068;55.780;37.520;2024-03-02T10:47:04;101224.13;;;5.92;60.85
61205;BME280;47068;55.780;37.520;2024-03-02T10:49:31;101217.69;;;5.97;61.18
61205;BME280;47068;55.780;37.520;2024-03-02T10:51:58;101229.00;;;6.13;60.17
61205;BME280;47068;55.780;37.520;2024-03-02T10:54:27;101221.25;;;6.10;59.98
61205;BME280;47068;55.780;37.520;2024-03-02T10:56:58;101201.91;;;6.09;60.00
61205;BME280;47068;55.780;37.520;2024-03-02T10:59:33;101228.91;;;6.14;60.19
61205;BME280;47068;55.780;37.520;2024-03-02T11:02:03;101222.09;;;6.10;60.34
61205;BME280;47068;55.780;37.520;2024-03-02T11:04:30;101212.91;;;6.16;60.87
61205;BME280;47068;55.780;37.520;2024-03-02T11:07:10;101216.34;;;6.57;60.75
61205;BME280;47068;55.780;37.520;2024-03-02T11:09:42;101203.81;;;6.73;58.86
61205;BME280;47068;55.780;37.520;2024-03-02T11:14:55;101208.44;;;6.57;59.06
61205;BME280;47068;55.780;37.520;2024-03-02T11:17:21;101198.69;;;6.58;59.61
61205;BME280;47068;55.780;37.520;2024-03-02T11:19:47;101198.00;;;6.68;58.58
61205;BME280;47068;55.780;37.520;2024-03-02T11:22:15;101211.56;;;6.77;58.89
61205;BME280;47068;55.780;37.520;2024-03-02T11:24:48;101208.50;;;6.83;58.88
61205;BME280;47068;55.780;37.520;2024-03-02T11:27:14;101206.06;;;6.80;58.64
61205;BME280;47068;55.780;37.520;2024-03-02T11:32:14;101215.34;;;6.72;58.43
61205;BME280;47068;55.780;37.520;2024-03-02T11:34:46;101209.97;;;6.87;58.76
61205;BME280;47068;55.780;37.520;2024-03-02T11:37:14;101206.22;;;7.16;58.27
61205;BME280;47068;55.780;37.520;2024-03-02T11:39:40;101208.13;;;7.39;57.21
61205;BME280;47068;55.780;37.520;2024-03-02T11:42:09;101201.34;;;7.35;56.20
61205;BME280;47068;55.780;37.520;2024-03-02T11:44:39;101206.59;;;6.85;57.68
61205;BME280;47068;55.780;37.520;2024-03-02T11:47:07;101198.38;;;6.50;58.60
61205;BME280;47068;55.780;37.520;2024-03-02T11:49:38;101192.03;;;6.52;59.18
61205;BME280;47068;55.780;37.520;2024-03-02T11:52:14;101188.88;;;6.60;58.83
61205;BME280;47068;55.780;37.520;2024-03-02T11:54:42;101187.50;;;6.67;57.85
61205;BME280;47068;55.780;37.520;2024-03-02T11:57:18;101147.78;;;6.29;57.91
61205;BME280;47068;55.780;37.520;2024-03-02T11:59:45;101189.59;;;6.49;58.45
61205;BME280;47068;55.780;37.520;2024-03-02T12:02:21;101190.19;;;6.40;58.64
61205;BME280;47068;55.780;37.520;2024-03-02T12:04:48;101188.34;;;6.55;58.71
61205;BME280;47068;55.780;37.520;2024-03-02T12:07:23;101174.81;;;6.72;57.18
61205;BME280;47068;55.780;37.520;2024-03-02T12:09:59;101187.13;;;6.86;57.43
61205;BME280;47068;55.780;37.520;2024-03-02T12:12:26;101184.38;;;7.00;57.77
61205;BME280;47068;55.780;37.520;2024-03-02T12:14:53;101177.84;;;7.18;57.56
61205;BME280;47068;55.780;37.520;2024-03-02T12:17:22;101166.28;;;7.19;56.38
61205;BME280;47068;55.780;37.520;2024-03-02T12:19:47;101182.06;;;7.08;55.61
61205;BME280;47068;55.780;37.520;2024-03-02T12:22:13;101188.47;;;6.79;56.28
61205;BME280;47068;55.780;37.520;2024-03-02T12:24:39;101191.94;;;6.54;57.53
61205;BME280;47068;55.780;37.520;2024-03-02T12:27:06;101196.31;;;6.67;58.47
61205;BME280;47068;55.780;37.520;2024-03-02T12:29:32;101194.75;;;6.78;57.74
61205;BME280;47068;55.780;37.520;2024-03-02T12:31:59;101188.78;;;6.61;57.03
61205;BME280;47068;55.780;37.520;2024-03-02T12:34:25;101182.63;;;6.61;57.49
61205;BME280;47068;55.780;37.520;2024-03-02T12:36:51;101193.06;;;6.77;57.53
61205;BME280;47068;55.780;37.520;2024-03-02T12:39:21;101194.34;;;6.96;57.07
61205;BME280;47068;55.780;37.520;2024-03-02T12:41:49;101190.31;;;6.91;57.03
61205;BME280;47068;55.780;37.520;2024-03-02T12:44:16;101184.34;;;6.62;56.61
61205;BME280;47068;55.780;37.520;2024-03-02T12:46:41;101196.06;;;6.58;57.67
61205;BME280;47068;55.780;37.520;2024-03-02T12:49:09;101182.41;;;6.24;57.64
61205;BME280;47068;55.780;37.520;2024-03-02T12:51:39;101198.94;;;6.01;58.52
61205;BME280;47068;55.780;37.520;2024-03-02T12:54:07;101196.16;;;6.03;59.22